sensor_id;sensor_type;location;lat;lon;timestamp;pressure;altitude;pressure_sealevel;temperature;humidity
72587;BME280;60621;49.576;11.024;2023-03-24T00:00:48;97532.56;;;13.99;62.84
72587;BME280;60621;49.576;11.024;2023-03-24T00:01:52;97524.25;;;13.97;62.40
72587;BME280;60621;49.576;11.024;2023-03-24T00:02:53;97530.66;;;13.99;62.21
72587;BME280;60621;49.576;11.024;2023-03-24T00:03:59;97537.13;;;13.98;62.54
72587;BME280;60621;49.576;11.024;2023-03-24T00:05:02;97529.19;;;13.95;63.08
72587;BME280;60621;49.576;11.024;2023-03-24T00:06:06;97525.75;;;13.98;62.58
72587;BME280;60621;49.576;11.024;2023-03-24T00:07:10;97523.84;;;13.98;62.43
72587;BME280;60621;49.576;11.024;2023-03-24T00:08:15;97528.00;;;13.99;62.33
72587;BME280;60621;49.576;11.024;2023-03-24T00:09:18;97527.63;;;14.01;62.13
72587;BME280;60621;49.576;11.024;2023-03-24T00:10:21;97529.16;;;13.98;62.38
72587;BME280;60621;49.576;11.024;2023-03-24T00:11:23;97523.84;;;13.98;62.31
72587;BME280;60621;49.576;11.024;2023-03-24T00:12:26;97523.44;;;14.00;62.27
72587;BME280;60621;49.576;11.024;2023-03-24T00:13:29;97517.41;;;13.99;62.08
72587;BME280;60621;49.576;11.024;2023-03-24T00:14:32;97520.06;;;13.99;62.04
72587;BME280;60621;49.576;11.024;2023-03-24T00:15:34;97524.97;;;14.01;61.93
72587;BME280;60621;49.576;11.024;2023-03-24T00:16:40;97529.13;;;14.02;61.92
72587;BME280;60621;49.576;11.024;2023-03-24T00:17:47;97521.53;;;14.00;62.15
72587;BME280;60621;49.576;11.024;2023-03-24T00:18:51;97523.50;;;13.96;62.33
72587;BME280;60621;49.576;11.024;2023-03-24T00:19:55;97518.97;;;13.93;62.51
72587;BME280;60621;49.576;11.024;2023-03-24T00:20:58;97519.31;;;13.95;62.39
72587;BME280;60621;49.576;11.024;2023-03-24T00:22:00;97514.44;;;13.94;62.44
72587;BME280;60621;49.576;11.024;2023-03-24T00:23:02;97515.59;;;13.93;63.06
72587;BME280;60621;49.576;11.024;2023-03-24T00:24:05;97514.09;;;13.92;62.65
72587;BME280;60621;49.576;11.024;2023-03-24T00:25:09;97512.56;;;13.91;62.91
72587;BME280;60621;49.576;11.024;2023-03-24T00:26:12;97518.66;;;13.88;63.11
72587;BME280;60621;49.576;11.024;2023-03-24T00:27:15;97513.75;;;13.86;63.88
72587;BME280;60621;49.576;11.024;2023-03-24T00:28:18;97518.28;;;13.86;64.10
72587;BME280;60621;49.576;11.024;2023-03-24T00:29:21;97511.88;;;13.87;63.50
72587;BME280;60621;49.576;11.024;2023-03-24T00:30:22;97509.59;;;13.85;63.68
72587;BME280;60621;49.576;11.024;2023-03-24T00:31:25;97502.03;;;13.83;64.00
72587;BME280;60621;49.576;11.024;2023-03-24T00:32:26;97503.22;;;13.79;63.81
72587;BME280;60621;49.576;11.024;2023-03-24T00:33:31;97506.72;;;13.69;63.31
72587;BME280;60621;49.576;11.024;2023-03-24T00:34:33;97506.41;;;13.63;63.74
72587;BME280;60621;49.576;11.024;2023-03-24T00:35:38;97499.22;;;13.64;63.99
72587;BME280;60621;49.576;11.024;2023-03-24T00:36:40;97501.06;;;13.67;64.66
72587;BME280;60621;49.576;11.024;2023-03-24T00:37:42;97491.97;;;13.68;63.72
72587;BME280;60621;49.576;11.024;2023-03-24T00:38:45;97500.31;;;13.66;63.69
72587;BME280;60621;49.576;11.024;2023-03-24T00:39:48;97494.63;;;13.68;63.74
72587;BME280;60621;49.576;11.024;2023-03-24T00:40:50;97501.03;;;13.70;64.11
72587;BME280;60621;49.576;11.024;2023-03-24T00:41:51;97498.38;;;13.70;64.38
72587;BME280;60621;49.576;11.024;2023-03-24T00:42:53;97500.63;;;13.72;64.76
72587;BME280;60621;49.576;11.024;2023-03-24T00:43:56;97497.59;;;13.73;64.59
72587;BME280;60621;49.576;11.024;2023-03-24T00:44:58;97494.56;;;13.75;63.48
72587;BME280;60621;49.576;11.024;2023-03-24T00:46:03;97496.84;;;13.73;63.41
72587;BME280;60621;49.576;11.024;2023-03-24T00:47:05;97495.69;;;13.74;63.13
72587;BME280;60621;49.576;11.024;2023-03-24T00:48:07;97500.63;;;13.72;63.49
72587;BME280;60621;49.576;11.024;2023-03-24T00:49:11;97499.84;;;13.75;64.10
72587;BME280;60621;49.576;11.024;2023-03-24T00:50:17;97503.63;;;13.77;64.29
72587;BME280;60621;49.576;11.024;2023-03-24T00:51:20;97504.00;;;13.76;64.16
72587;BME280;60621;49.576;11.024;2023-03-24T00:52:23;97501.72;;;13.78;64.38
72587;BME280;60621;49.576;11.024;2023-03-24T00:53:25;97503.25;;;13.75;63.77
72587;BME280;60621;49.576;11.024;2023-03-24T00:54:29;97504.41;;;13.74;64.06
72587;BME280;60621;49.576;11.024;2023-03-24T00:55:32;97505.53;;;13.77;64.10
72587;BME280;60621;49.576;11.024;2023-03-24T00:56:35;97509.28;;;13.79;64.29
72587;BME280;60621;49.576;11.024;2023-03-24T00:57:38;97515.69;;;13.82;63.93
72587;BME280;60621;49.576;11.024;2023-03-24T00:58:41;97520.59;;;13.83;64.09
72587;BME280;60621;49.576;11.024;2023-03-24T00:59:42;97518.72;;;13.80;63.76
72587;BME280;60621;49.576;11.024;2023-03-24T01:00:55;97518.00;;;13.76;63.78
72587;BME280;60621;49.576;11.024;2023-03-24T01:01:57;97515.75;;;13.75;64.52
72587;BME280;60621;49.576;11.024;2023-03-24T01:02:59;97509.72;;;13.71;64.22
72587;BME280;60621;49.576;11.024;2023-03-24T01:04:04;97502.53;;;13.71;64.04
72587;BME280;60621;49.576;11.024;2023-03-24T01:05:06;97504.13;;;13.62;64.27
72587;BME280;60621;49.576;11.024;2023-03-24T01:06:09;97497.72;;;13.63;64.83
72587;BME280;60621;49.576;11.024;2023-03-24T01:07:12;97496.91;;;13.66;64.87
72587;BME280;60621;49.576;11.024;2023-03-24T01:08:18;97491.97;;;13.68;64.93
72587;BME280;60621;49.576;11.024;2023-03-24T01:09:20;97487.78;;;13.70;65.40
72587;BME280;60621;49.576;11.024;2023-03-24T01:10:22;97495.31;;;13.72;65.15
72587;BME280;60621;49.576;11.024;2023-03-24T01:11:27;97498.69;;;13.76;65.20
72587;BME280;60621;49.576;11.024;2023-03-24T01:12:31;97490.38;;;13.77;65.52
72587;BME280;60621;49.576;11.024;2023-03-24T01:13:33;97497.19;;;13.75;65.86
72587;BME280;60621;49.576;11.024;2023-03-24T01:14:35;97486.59;;;13.75;65.78
72587;BME280;60621;49.576;11.024;2023-03-24T01:15:36;97480.94;;;13.73;66.33
72587;BME280;60621;49.576;11.024;2023-03-24T01:16:39;97481.75;;;13.66;66.72
72587;BME280;60621;49.576;11.024;2023-03-24T01:17:41;97484.41;;;13.66;67.13
72587;BME280;60621;49.576;11.024;2023-03-24T01:18:43;97471.16;;;13.66;67.17
72587;BME280;60621;49.576;11.024;2023-03-24T01:19:45;97465.63;;;13.53;67.66
72587;BME280;60621;49.576;11.024;2023-03-24T01:20:47;97467.16;;;13.51;68.07
72587;BME280;60621;49.576;11.024;2023-03-24T01:21:51;97463.41;;;13.48;68.16
72587;BME280;60621;49.576;11.024;2023-03-24T01:22:54;97460.38;;;13.46;68.00
72587;BME280;60621;49.576;11.024;2023-03-24T01:23:56;97462.31;;;13.42;68.17
72587;BME280;60621;49.576;11.024;2023-03-24T01:24:58;97472.13;;;13.45;68.60
72587;BME280;60621;49.576;11.024;2023-03-24T01:26:04;97470.56;;;13.48;68.65
72587;BME280;60621;49.576;11.024;2023-03-24T01:27:06;97479.66;;;13.50;68.12
72587;BME280;60621;49.576;11.024;2023-03-24T01:28:08;97474.31;;;13.54;68.43
72587;BME280;60621;49.576;11.024;2023-03-24T01:29:09;97476.97;;;13.54;68.01
72587;BME280;60621;49.576;11.024;2023-03-24T01:30:14;97481.09;;;13.58;67.48
72587;BME280;60621;49.576;11.024;2023-03-24T01:31:15;97484.09;;;13.61;67.34
72587;BME280;60621;49.576;11.024;2023-03-24T01:32:17;97489.38;;;13.64;66.98
72587;BME280;60621;49.576;11.024;2023-03-24T01:33:19;97481.41;;;13.64;66.83
72587;BME280;60621;49.576;11.024;2023-03-24T01:34:21;97486.72;;;13.64;66.57
72587;BME280;60621;49.576;11.024;2023-03-24T01:35:24;97492.78;;;13.61;66.63
72587;BME280;60621;49.576;11.024;2023-03-24T01:36:29;97490.13;;;13.61;66.63
72587;BME280;60621;49.576;11.024;2023-03-24T01:37:31;97498.84;;;13.62;66.46
72587;BME280;60621;49.576;11.024;2023-03-24T01:38:32;97487.88;;;13.60;66.17
72587;BME280;60621;49.576;11.024;2023-03-24T01:39:34;97495.13;;;13.52;66.68
72587;BME280;60621;49.576;11.024;2023-03-24T01:40:38;97493.28;;;13.49;66.94
72587;BME280;60621;49.576;11.024;2023-03-24T01:41:39;97489.13;;;13.48;66.94
72587;BME280;60621;49.576;11.024;2023-03-24T01:42:43;97481.94;;;13.48;67.09
72587;BME280;60621;49.576;11.024;2023-03-24T01:43:44;97486.84;;;13.50;67.07
72587;BME280;60621;49.576;11.024;2023-03-24T01:44:48;97481.16;;;13.51;66.48
72587;BME280;60621;49.576;11.024;2023-03-24T01:46:52;97488.31;;;13.54;66.53
72587;BME280;60621;49.576;11.024;2023-03-24T01:47:55;97484.91;;;13.54;66.68
72587;BME280;60621;49.576;11.024;2023-03-24T01:49:04;97482.69;;;13.49;67.05
72587;BME280;60621;49.576;11.024;2023-03-24T01:50:06;97490.25;;;13.50;66.96
72587;BME280;60621;49.576;11.024;2023-03-24T01:51:19;97502.34;;;13.51;66.61
72587;BME280;60621;49.576;11.024;2023-03-24T01:52:27;97491.41;;;13.49;66.79
72587;BME280;60621;49.576;11.024;2023-03-24T01:53:31;97486.13;;;13.46;67.06
72587;BME280;60621;49.576;11.024;2023-03-24T01:54:39;97485.38;;;13.45;67.24
72587;BME280;60621;49.576;11.024;2023-03-24T01:55:44;97485.72;;;13.47;67.00
72587;BME280;60621;49.576;11.024;2023-03-24T01:56:57;97472.84;;;13.49;67.59
72587;BME280;60621;49.576;11.024;2023-03-24T01:58:01;97463.00;;;13.50;67.18
72587;BME280;60621;49.576;11.024;2023-03-24T01:59:09;97457.31;;;13.48;67.38
72587;BME280;60621;49.576;11.024;2023-03-24T02:00:15;97459.63;;;13.46;67.97
72587;BME280;60621;49.576;11.024;2023-03-24T02:01:18;97452.13;;;13.37;68.44
72587;BME280;60621;49.576;11.024;2023-03-24T02:02:20;97453.59;;;13.42;68.23
72587;BME280;60621;49.576;11.024;2023-03-24T02:03:23;97447.91;;;13.43;68.15
72587;BME280;60621;49.576;11.024;2023-03-24T02:04:26;97452.09;;;13.44;68.16
72587;BME280;60621;49.576;11.024;2023-03-24T02:05:31;97442.59;;;13.47;68.05
72587;BME280;60621;49.576;11.024;2023-03-24T02:06:36;97445.22;;;13.47;68.00
72587;BME280;60621;49.576;11.024;2023-03-24T02:07:49;97439.59;;;13.45;67.77
72587;BME280;60621;49.576;11.024;2023-03-24T02:08:55;97436.56;;;13.43;67.92
72587;BME280;60621;49.576;11.024;2023-03-24T02:09:57;97436.94;;;13.45;67.75
72587;BME280;60621;49.576;11.024;2023-03-24T02:11:00;97429.75;;;13.45;67.81
72587;BME280;60621;49.576;11.024;2023-03-24T02:12:05;97423.28;;;13.46;67.61
72587;BME280;60621;49.576;11.024;2023-03-24T02:13:07;97417.25;;;13.46;67.62
72587;BME280;60621;49.576;11.024;2023-03-24T02:14:11;97418.41;;;13.45;67.98
72587;BME280;60621;49.576;11.024;2023-03-24T02:15:14;97422.97;;;13.41;67.92
72587;BME280;60621;49.576;11.024;2023-03-24T02:17:51;97416.91;;;13.44;68.00
72587;BME280;60621;49.576;11.024;2023-03-24T02:27:15;97408.59;;;13.38;67.72
72587;BME280;60621;49.576;11.024;2023-03-24T02:28:25;97393.56;;;13.28;67.93
72587;BME280;60621;49.576;11.024;2023-03-24T02:29:45;97399.28;;;13.23;68.14
72587;BME280;60621;49.576;11.024;2023-03-24T02:31:13;97393.94;;;13.30;67.85
72587;BME280;60621;49.576;11.024;2023-03-24T02:35:27;97391.22;;;13.37;67.35
72587;BME280;60621;49.576;11.024;2023-03-24T02:36:37;97387.81;;;13.37;67.61
72587;BME280;60621;49.576;11.024;2023-03-24T02:41:52;97379.56;;;13.27;67.80
72587;BME280;60621;49.576;11.024;2023-03-24T02:46:11;97378.16;;;13.16;68.21
72587;BME280;60621;49.576;11.024;2023-03-24T02:47:23;97374.72;;;13.22;68.02
72587;BME280;60621;49.576;11.024;2023-03-24T02:48:30;97377.34;;;13.26;68.05
72587;BME280;60621;49.576;11.024;2023-03-24T02:49:55;97377.31;;;13.29;67.73
72587;BME280;60621;49.576;11.024;2023-03-24T02:52:19;97366.66;;;13.33;67.83
72587;BME280;60621;49.576;11.024;2023-03-24T02:53:39;97357.97;;;13.32;67.80
72587;BME280;60621;49.576;11.024;2023-03-24T02:54:49;97360.63;;;13.29;67.93
72587;BME280;60621;49.576;11.024;2023-03-24T02:55:56;97357.22;;;13.32;67.89
72587;BME280;60621;49.576;11.024;2023-03-24T02:58:34;97351.47;;;13.37;67.57
72587;BME280;60621;49.576;11.024;2023-03-24T02:59:44;97353.78;;;13.35;68.20
72587;BME280;60621;49.576;11.024;2023-03-24T03:00:55;97361.66;;;13.39;67.54
72587;BME280;60621;49.576;11.024;2023-03-24T03:02:07;97356.34;;;13.42;67.47
72587;BME280;60621;49.576;11.024;2023-03-24T03:03:25;97352.75;;;13.25;68.11
72587;BME280;60621;49.576;11.024;2023-03-24T03:04:33;97355.72;;;13.31;68.36
72587;BME280;60621;49.576;11.024;2023-03-24T03:05:46;97353.78;;;13.35;67.89
72587;BME280;60621;49.576;11.024;2023-03-24T03:06:53;97347.69;;;13.38;67.51
72587;BME280;60621;49.576;11.024;2023-03-24T03:07:59;97355.25;;;13.40;67.31
72587;BME280;60621;49.576;11.024;2023-03-24T03:09:07;97345.75;;;13.42;67.54
72587;BME280;60621;49.576;11.024;2023-03-24T03:10:14;97339.06;;;13.30;67.75
72587;BME280;60621;49.576;11.024;2023-03-24T03:11:18;97337.59;;;13.26;67.98
72587;BME280;60621;49.576;11.024;2023-03-24T03:12:21;97333.78;;;13.30;67.71
72587;BME280;60621;49.576;11.024;2023-03-24T03:13:55;97340.91;;;13.33;67.53
72587;BME280;60621;49.576;11.024;2023-03-24T03:15:06;97339.38;;;13.36;67.66
72587;BME280;60621;49.576;11.024;2023-03-24T03:16:21;97340.97;;;13.30;67.87
72587;BME280;60621;49.576;11.024;2023-03-24T03:17:33;97350.38;;;13.35;67.79
72587;BME280;60621;49.576;11.024;2023-03-24T03:18:44;97339.41;;;13.32;67.73
72587;BME280;60621;49.576;11.024;2023-03-24T03:19:53;97345.44;;;13.37;67.59
72587;BME280;60621;49.576;11.024;2023-03-24T03:21:01;97341.25;;;13.39;67.73
72587;BME280;60621;49.576;11.024;2023-03-24T03:22:11;97345.00;;;13.42;67.29
72587;BME280;60621;49.576;11.024;2023-03-24T03:23:19;97335.91;;;13.43;67.49
72587;BME280;60621;49.576;11.024;2023-03-24T03:24:26;97340.06;;;13.44;67.53
72587;BME280;60621;49.576;11.024;2023-03-24T03:25:35;97343.09;;;13.42;67.46
72587;BME280;60621;49.576;11.024;2023-03-24T03:26:39;97345.75;;;13.42;67.47
72587;BME280;60621;49.576;11.024;2023-03-24T03:27:43;97342.75;;;13.40;67.55
72587;BME280;60621;49.576;11.024;2023-03-24T03:28:51;97338.63;;;13.36;67.69
72587;BME280;60621;49.576;11.024;2023-03-24T03:30:11;97337.91;;;13.35;67.46
72587;BME280;60621;49.576;11.024;2023-03-24T03:31:22;97329.13;;;13.38;67.40
72587;BME280;60621;49.576;11.024;2023-03-24T03:32:32;97332.16;;;13.40;67.48
72587;BME280;60621;49.576;11.024;2023-03-24T03:33:40;97328.75;;;13.40;67.39
72587;BME280;60621;49.576;11.024;2023-03-24T03:35:16;97340.84;;;13.41;67.62
72587;BME280;60621;49.576;11.024;2023-03-24T03:36:45;97324.22;;;13.40;67.71
72587;BME280;60621;49.576;11.024;2023-03-24T03:39:05;97320.75;;;13.43;67.52
72587;BME280;60621;49.576;11.024;2023-03-24T03:40:13;97314.00;;;13.39;67.77
72587;BME280;60621;49.576;11.024;2023-03-24T03:41:16;97320.81;;;13.40;68.12
72587;BME280;60621;49.576;11.024;2023-03-24T03:42:19;97323.81;;;13.42;67.79
72587;BME280;60621;49.576;11.024;2023-03-24T03:43:21;97320.38;;;13.45;67.24
72587;BME280;60621;49.576;11.024;2023-03-24T03:44:24;97322.63;;;13.46;67.17
72587;BME280;60621;49.576;11.024;2023-03-24T03:45:25;97318.91;;;13.40;67.62
72587;BME280;60621;49.576;11.024;2023-03-24T03:46:27;97315.06;;;13.45;67.34
72587;BME280;60621;49.576;11.024;2023-03-24T03:47:29;97321.13;;;13.45;67.66
72587;BME280;60621;49.576;11.024;2023-03-24T03:48:35;97320.06;;;13.39;67.46
72587;BME280;60621;49.576;11.024;2023-03-24T03:49:37;97319.34;;;13.35;67.76
72587;BME280;60621;49.576;11.024;2023-03-24T03:50:39;97326.16;;;13.36;67.97
72587;BME280;60621;49.576;11.024;2023-03-24T03:51:40;97329.88;;;13.39;67.93
72587;BME280;60621;49.576;11.024;2023-03-24T03:52:42;97334.38;;;13.45;67.61
72587;BME280;60621;49.576;11.024;2023-03-24T03:53:54;97333.59;;;13.48;67.46
72587;BME280;60621;49.576;11.024;2023-03-24T03:54:57;97331.31;;;13.47;67.63
72587;BME280;60621;49.576;11.024;2023-03-24T03:55:59;97335.84;;;13.50;67.35
72587;BME280;60621;49.576;11.024;2023-03-24T03:57:00;97335.03;;;13.53;67.48
72587;BME280;60621;49.576;11.024;2023-03-24T03:58:02;97332.44;;;13.49;67.69
72587;BME280;60621;49.576;11.024;2023-03-24T03:59:05;97327.13;;;13.49;67.60
72587;BME280;60621;49.576;11.024;2023-03-24T04:00:12;97329.41;;;13.47;67.33
72587;BME280;60621;49.576;11.024;2023-03-24T04:01:19;97329.41;;;13.47;67.30
72587;BME280;60621;49.576;11.024;2023-03-24T04:03:55;97321.91;;;13.42;67.52
72587;BME280;60621;49.576;11.024;2023-03-24T04:05:16;97334.88;;;13.33;67.71
72587;BME280;60621;49.576;11.024;2023-03-24T04:08:43;97330.66;;;13.39;67.50
72587;BME280;60621;49.576;11.024;2023-03-24T04:16:37;97334.09;;;13.36;67.52
72587;BME280;60621;49.576;11.024;2023-03-24T04:20:18;97321.25;;;13.35;67.46
72587;BME280;60621;49.576;11.024;2023-03-24T04:21:45;97315.22;;;13.34;67.64
72587;BME280;60621;49.576;11.024;2023-03-24T04:24:12;97317.06;;;13.33;67.50
72587;BME280;60621;49.576;11.024;2023-03-24T04:25:51;97316.34;;;13.33;67.37
72587;BME280;60621;49.576;11.024;2023-03-24T04:27:13;97319.78;;;13.30;67.54
72587;BME280;60621;49.576;11.024;2023-03-24T04:28:25;97318.63;;;13.31;67.76
72587;BME280;60621;49.576;11.024;2023-03-24T04:29:33;97324.38;;;13.26;67.55
72587;BME280;60621;49.576;11.024;2023-03-24T04:30:46;97314.13;;;13.28;67.73
72587;BME280;60621;49.576;11.024;2023-03-24T04:32:02;97325.88;;;13.27;67.78
72587;BME280;60621;49.576;11.024;2023-03-24T04:33:22;97320.56;;;13.27;67.74
72587;BME280;60621;49.576;11.024;2023-03-24T04:34:32;97319.38;;;13.31;67.48
72587;BME280;60621;49.576;11.024;2023-03-24T04:35:39;97320.88;;;13.32;67.30
72587;BME280;60621;49.576;11.024;2023-03-24T04:36:51;97320.09;;;13.36;67.18
72587;BME280;60621;49.576;11.024;2023-03-24T04:37:55;97316.69;;;13.35;67.37
72587;BME280;60621;49.576;11.024;2023-03-24T04:38:58;97309.50;;;13.36;67.34
72587;BME280;60621;49.576;11.024;2023-03-24T04:40:07;97315.16;;;13.38;67.12
72587;BME280;60621;49.576;11.024;2023-03-24T04:41:11;97306.41;;;13.41;67.05
72587;BME280;60621;49.576;11.024;2023-03-24T04:42:21;97313.63;;;13.40;66.96
72587;BME280;60621;49.576;11.024;2023-03-24T04:43:27;97311.72;;;13.41;67.12
72587;BME280;60621;49.576;11.024;2023-03-24T04:44:37;97309.06;;;13.41;66.93
72587;BME280;60621;49.576;11.024;2023-03-24T04:45:42;97314.78;;;13.39;66.90
72587;BME280;60621;49.576;11.024;2023-03-24T04:46:53;97306.41;;;13.41;67.10
72587;BME280;60621;49.576;11.024;2023-03-24T04:47:59;97306.81;;;13.39;66.96
72587;BME280;60621;49.576;11.024;2023-03-24T04:49:01;97306.81;;;13.39;66.78
72587;BME280;60621;49.576;11.024;2023-03-24T04:50:06;97301.91;;;13.38;66.95
72587;BME280;60621;49.576;11.024;2023-03-24T04:51:11;97298.50;;;13.37;67.23
72587;BME280;60621;49.576;11.024;2023-03-24T04:52:14;97301.56;;;13.36;67.04
72587;BME280;60621;49.576;11.024;2023-03-24T04:53:18;97303.06;;;13.37;66.88
72587;BME280;60621;49.576;11.024;2023-03-24T04:54:21;97308.34;;;13.37;66.98
72587;BME280;60621;49.576;11.024;2023-03-24T04:56:53;97309.09;;;13.37;66.77
72587;BME280;60621;49.576;11.024;2023-03-24T04:57:57;97306.44;;;13.37;66.79
72587;BME280;60621;49.576;11.024;2023-03-24T04:58:59;97303.06;;;13.37;66.91
72587;BME280;60621;49.576;11.024;2023-03-24T05:00:00;97313.66;;;13.37;67.34
72587;BME280;60621;49.576;11.024;2023-03-24T05:01:03;97298.16;;;13.35;66.69
72587;BME280;60621;49.576;11.024;2023-03-24T05:02:06;97301.25;;;13.30;66.77
72587;BME280;60621;49.576;11.024;2023-03-24T05:03:09;97300.09;;;13.31;66.86
72587;BME280;60621;49.576;11.024;2023-03-24T05:04:19;97307.63;;;13.32;66.92
72587;BME280;60621;49.576;11.024;2023-03-24T05:05:21;97304.66;;;13.30;67.43
72587;BME280;60621;49.576;11.024;2023-03-24T05:06:24;97299.44;;;13.20;67.19
72587;BME280;60621;49.576;11.024;2023-03-24T05:07:25;97303.59;;;13.21;67.55
72587;BME280;60621;49.576;11.024;2023-03-24T05:08:27;97296.41;;;13.21;67.43
72587;BME280;60621;49.576;11.024;2023-03-24T05:09:29;97282.41;;;13.21;67.66
72587;BME280;60621;49.576;11.024;2023-03-24T05:10:31;97285.03;;;13.24;67.45
72587;BME280;60621;49.576;11.024;2023-03-24T05:11:33;97280.84;;;13.27;67.45
72587;BME280;60621;49.576;11.024;2023-03-24T05:12:34;97275.63;;;13.20;67.64
72587;BME280;60621;49.576;11.024;2023-03-24T05:13:36;97269.53;;;13.23;67.81
72587;BME280;60621;49.576;11.024;2023-03-24T05:14:38;97271.44;;;13.22;67.61
72587;BME280;60621;49.576;11.024;2023-03-24T05:15:39;97265.00;;;13.23;67.95
72587;BME280;60621;49.576;11.024;2023-03-24T05:16:41;97264.22;;;13.26;67.21
72587;BME280;60621;49.576;11.024;2023-03-24T05:17:43;97268.34;;;13.27;66.98
72587;BME280;60621;49.576;11.024;2023-03-24T05:18:45;97268.31;;;13.31;66.78
72587;BME280;60621;49.576;11.024;2023-03-24T05:19:46;97271.03;;;13.24;67.30
72587;BME280;60621;49.576;11.024;2023-03-24T05:20:48;97275.94;;;13.25;67.19
72587;BME280;60621;49.576;11.024;2023-03-24T05:21:49;97280.06;;;13.30;66.94
72587;BME280;60621;49.576;11.024;2023-03-24T05:22:52;97270.22;;;13.30;67.03
72587;BME280;60621;49.576;11.024;2023-03-24T05:23:54;97274.75;;;13.30;67.32
72587;BME280;60621;49.576;11.024;2023-03-24T05:24:55;97274.06;;;13.26;67.19
72587;BME280;60621;49.576;11.024;2023-03-24T05:25:57;97280.06;;;13.30;66.79
72587;BME280;60621;49.576;11.024;2023-03-24T05:26:58;97282.66;;;13.33;66.61
72587;BME280;60621;49.576;11.024;2023-03-24T05:28:00;97283.09;;;13.28;66.90
72587;BME280;60621;49.576;11.024;2023-03-24T05:29:01;97281.16;;;13.32;66.25
72587;BME280;60621;49.576;11.024;2023-03-24T05:30:04;97284.50;;;13.37;66.14
72587;BME280;60621;49.576;11.024;2023-03-24T05:31:06;97291.00;;;13.32;66.38
72587;BME280;60621;49.576;11.024;2023-03-24T05:32:08;97289.47;;;13.35;66.33
72587;BME280;60621;49.576;11.024;2023-03-24T05:33:09;97287.91;;;13.37;66.24
72587;BME280;60621;49.576;11.024;2023-03-24T05:34:11;97288.63;;;13.41;66.17
72587;BME280;60621;49.576;11.024;2023-03-24T05:35:13;97295.03;;;13.44;65.84
72587;BME280;60621;49.576;11.024;2023-03-24T05:36:14;97292.38;;;13.44;65.81
72587;BME280;60621;49.576;11.024;2023-03-24T05:37:16;97296.53;;;13.45;65.82
72587;BME280;60621;49.576;11.024;2023-03-24T05:38:18;97298.78;;;13.46;65.67
72587;BME280;60621;49.576;11.024;2023-03-24T05:39:19;97293.84;;;13.48;65.52
72587;BME280;60621;49.576;11.024;2023-03-24T05:40:21;97292.28;;;13.51;65.49
72587;BME280;60621;49.576;11.024;2023-03-24T05:41:22;97299.81;;;13.52;65.35
72587;BME280;60621;49.576;11.024;2023-03-24T05:42:24;97303.59;;;13.55;65.11
72587;BME280;60621;49.576;11.024;2023-03-24T05:43:26;97302.53;;;13.49;65.27
72587;BME280;60621;49.576;11.024;2023-03-24T05:44:27;97304.38;;;13.52;65.16
72587;BME280;60621;49.576;11.024;2023-03-24T05:45:29;97302.47;;;13.52;65.33
72587;BME280;60621;49.576;11.024;2023-03-24T05:46:30;97304.00;;;13.53;65.10
72587;BME280;60621;49.576;11.024;2023-03-24T05:47:32;97303.59;;;13.55;64.74
72587;BME280;60621;49.576;11.024;2023-03-24T05:48:34;97302.84;;;13.54;64.66
72587;BME280;60621;49.576;11.024;2023-03-24T05:49:35;97302.03;;;13.57;64.88
72587;BME280;60621;49.576;11.024;2023-03-24T05:50:37;97304.31;;;13.59;64.90
72587;BME280;60621;49.576;11.024;2023-03-24T05:51:38;97310.69;;;13.62;64.94
72587;BME280;60621;49.576;11.024;2023-03-24T05:52:40;97317.53;;;13.63;64.67
72587;BME280;60621;49.576;11.024;2023-03-24T05:53:41;97319.81;;;13.61;64.86
72587;BME280;60621;49.576;11.024;2023-03-24T05:54:43;97321.28;;;13.62;64.60
72587;BME280;60621;49.576;11.024;2023-03-24T05:55:46;97323.94;;;13.62;65.00
72587;BME280;60621;49.576;11.024;2023-03-24T05:56:47;97327.75;;;13.61;64.80
72587;BME280;60621;49.576;11.024;2023-03-24T05:57:49;97322.41;;;13.64;64.84
72587;BME280;60621;49.576;11.024;2023-03-24T05:58:51;97328.06;;;13.66;64.48
72587;BME280;60621;49.576;11.024;2023-03-24T05:59:52;97329.50;;;13.71;64.50
72587;BME280;60621;49.576;11.024;2023-03-24T06:00:54;97320.84;;;13.67;64.53
72587;BME280;60621;49.576;11.024;2023-03-24T06:01:57;97330.78;;;13.63;64.67
72587;BME280;60621;49.576;11.024;2023-03-24T06:02:59;97324.66;;;13.66;64.81
72587;BME280;60621;49.576;11.024;2023-03-24T06:04:03;97323.19;;;13.61;64.80
72587;BME280;60621;49.576;11.024;2023-03-24T06:05:05;97334.50;;;13.65;64.87
72587;BME280;60621;49.576;11.024;2023-03-24T06:06:09;97345.44;;;13.67;64.87
72587;BME280;60621;49.576;11.024;2023-03-24T06:07:17;97337.50;;;13.67;64.50
72587;BME280;60621;49.576;11.024;2023-03-24T06:08:18;97342.44;;;13.69;64.58
72587;BME280;60621;49.576;11.024;2023-03-24T06:09:20;97334.84;;;13.67;64.46
72587;BME280;60621;49.576;11.024;2023-03-24T06:10:22;97335.63;;;13.68;64.58
72587;BME280;60621;49.576;11.024;2023-03-24T06:11:27;97337.13;;;13.69;64.59
72587;BME280;60621;49.576;11.024;2023-03-24T06:12:29;97345.41;;;13.71;64.43
72587;BME280;60621;49.576;11.024;2023-03-24T06:13:31;97346.91;;;13.72;64.54
72587;BME280;60621;49.576;11.024;2023-03-24T06:14:32;97338.97;;;13.72;63.83
72587;BME280;60621;49.576;11.024;2023-03-24T06:15:35;97347.41;;;13.63;64.33
72587;BME280;60621;49.576;11.024;2023-03-24T06:16:36;97344.06;;;13.59;64.05
72587;BME280;60621;49.576;11.024;2023-03-24T06:17:40;97337.63;;;13.56;64.38
72587;BME280;60621;49.576;11.024;2023-03-24T06:18:43;97347.03;;;13.61;64.67
72587;BME280;60621;49.576;11.024;2023-03-24T06:19:52;97339.03;;;13.68;64.27
72587;BME280;60621;49.576;11.024;2023-03-24T06:20:55;97336.31;;;13.72;64.06
72587;BME280;60621;49.576;11.024;2023-03-24T06:21:57;97336.69;;;13.74;64.00